sensor_id;sensor_type;location;lat;lon;timestamp;pressure;altitude;pressure_sealevel;temperature;humidity
36138;BME280;67787;50.074;21.904;2023-12-04T00:00:35;99677.99;;;-2.89;78.27
36138;BME280;67787;50.074;21.904;2023-12-04T00:03:23;99681.67;;;-2.93;78.26
36138;BME280;67787;50.074;21.904;2023-12-04T00:05:51;99685.70;;;-2.99;78.15
36138;BME280;67787;50.074;21.904;2023-12-04T00:08:19;99684.35;;;-3.02;78.22
36138;BME280;67787;50.074;21.904;2023-12-04T00:11:06;99686.11;;;-3.07;78.31
36138;BME280;67787;50.074;21.904;2023-12-04T00:13:34;99685.64;;;-3.14;78.16
36138;BME280;67787;50.074;21.904;2023-12-04T00:16:03;99686.55;;;-3.20;78.13
36138;BME280;67787;50.074;21.904;2023-12-04T00:18:31;99690.40;;;-3.26;77.97
36138;BME280;67787;50.074;21.904;2023-12-04T00:20:59;99688.35;;;-3.31;78.18
36138;BME280;67787;50.074;21.904;2023-12-04T00:23:27;99690.64;;;-3.37;78.14
36138;BME280;67787;50.074;21.904;2023-12-04T00:25:55;99692.08;;;-3.44;78.06
36138;BME280;67787;50.074;21.904;2023-12-04T00:28:23;99693.30;;;-3.49;78.04
36138;BME280;67787;50.074;21.904;2023-12-04T00:30:51;99694.38;;;-3.53;78.05
36138;BME280;67787;50.074;21.904;2023-12-04T00:33:19;99697.35;;;-3.58;77.90
36138;BME280;67787;50.074;21.904;2023-12-04T00:35:47;99698.77;;;-3.66;77.82
36138;BME280;67787;50.074;21.904;2023-12-04T00:38:15;99700.89;;;-3.73;77.70
36138;BME280;67787;50.074;21.904;2023-12-04T00:40:42;99697.96;;;-3.83;77.61
36138;BME280;67787;50.074;21.904;2023-12-04T00:43:10;99701.98;;;-3.92;77.64
36138;BME280;67787;50.074;21.904;2023-12-04T00:45:38;99700.45;;;-4.00;77.78
36138;BME280;67787;50.074;21.904;2023-12-04T00:48:06;99702.39;;;-4.12;77.64
36138;BME280;67787;50.074;21.904;2023-12-04T00:54:35;99707.64;;;-4.38;77.60
36138;BME280;67787;50.074;21.904;2023-12-04T00:57:03;99709.21;;;-4.48;77.62
36138;BME280;67787;50.074;21.904;2023-12-04T00:59:30;99708.00;;;-4.59;77.48
36138;BME280;67787;50.074;21.904;2023-12-04T01:01:58;99712.86;;;-4.68;77.53
36138;BME280;67787;50.074;21.904;2023-12-04T01:04:26;99715.62;;;-4.84;77.12
36138;BME280;67787;50.074;21.904;2023-12-04T01:06:54;99722.89;;;-4.97;77.29
36138;BME280;67787;50.074;21.904;2023-12-04T01:09:22;99723.57;;;-5.05;77.32
36138;BME280;67787;50.074;21.904;2023-12-04T01:11:52;99724.25;;;-5.13;77.32
36138;BME280;67787;50.074;21.904;2023-12-04T01:14:21;99722.16;;;-5.21;77.53
36138;BME280;67787;50.074;21.904;2023-12-04T01:16:49;99726.12;;;-5.28;77.39
36138;BME280;67787;50.074;21.904;2023-12-04T01:19:17;99723.50;;;-5.39;77.21
36138;BME280;67787;50.074;21.904;2023-12-04T01:21:45;99723.80;;;-5.54;76.77
36138;BME280;67787;50.074;21.904;2023-12-04T01:24:14;99719.95;;;-5.65;76.99
36138;BME280;67787;50.074;21.904;2023-12-04T01:26:42;99714.23;;;-5.71;77.13
36138;BME280;67787;50.074;21.904;2023-12-04T01:29:10;99721.47;;;-5.77;77.19
36138;BME280;67787;50.074;21.904;2023-12-04T01:31:38;99718.71;;;-5.76;77.07
36138;BME280;67787;50.074;21.904;2023-12-04T01:34:06;99721.30;;;-5.75;77.35
36138;BME280;67787;50.074;21.904;2023-12-04T01:36:34;99720.96;;;-5.74;77.37
36138;BME280;67787;50.074;21.904;2023-12-04T01:39:02;99723.40;;;-5.71;77.41
36138;BME280;67787;50.074;21.904;2023-12-04T01:41:31;99724.27;;;-5.68;77.70
36138;BME280;67787;50.074;21.904;2023-12-04T01:43:59;99726.34;;;-5.65;77.41
36138;BME280;67787;50.074;21.904;2023-12-04T01:46:26;99721.52;;;-5.63;77.48
36138;BME280;67787;50.074;21.904;2023-12-04T01:48:54;99726.20;;;-5.62;77.36
36138;BME280;67787;50.074;21.904;2023-12-04T01:51:23;99723.42;;;-5.62;77.27
36138;BME280;67787;50.074;21.904;2023-12-04T01:53:55;99724.65;;;-5.58;77.37
36138;BME280;67787;50.074;21.904;2023-12-04T01:56:26;99724.66;;;-5.57;77.11
36138;BME280;67787;50.074;21.904;2023-12-04T01:58:55;99722.23;;;-5.59;77.42
36138;BME280;67787;50.074;21.904;2023-12-04T02:01:23;99723.79;;;-5.57;77.30
36138;BME280;67787;50.074;21.904;2023-12-04T02:03:51;99723.81;;;-5.56;77.11
36138;BME280;67787;50.074;21.904;2023-12-04T02:06:19;99726.39;;;-5.54;77.13
36138;BME280;67787;50.074;21.904;2023-12-04T02:08:48;99726.05;;;-5.49;77.25
36138;BME280;67787;50.074;21.904;2023-12-04T02:11:16;99726.92;;;-5.47;77.14
36138;BME280;67787;50.074;21.904;2023-12-04T02:13:44;99730.04;;;-5.45;77.25
36138;BME280;67787;50.074;21.904;2023-12-04T02:16:14;99729.36;;;-5.43;77.19
36138;BME280;67787;50.074;21.904;2023-12-04T02:18:44;99729.20;;;-5.40;77.48
36138;BME280;67787;50.074;21.904;2023-12-04T02:21:12;99729.02;;;-5.39;77.37
36138;BME280;67787;50.074;21.904;2023-12-04T02:23:40;99732.84;;;-5.36;76.98
36138;BME280;67787;50.074;21.904;2023-12-04T02:26:15;99734.06;;;-5.34;77.21
36138;BME280;67787;50.074;21.904;2023-12-04T02:28:53;99734.42;;;-5.29;77.27
36138;BME280;67787;50.074;21.904;2023-12-04T02:31:24;99737.19;;;-5.24;77.28
36138;BME280;67787;50.074;21.904;2023-12-04T02:33:52;99739.11;;;-5.19;77.21
36138;BME280;67787;50.074;21.904;2023-12-04T02:36:27;99739.30;;;-5.12;77.50
36138;BME280;67787;50.074;21.904;2023-12-04T02:38:57;99738.62;;;-5.03;77.45
36138;BME280;67787;50.074;21.904;2023-12-04T02:41:26;99738.28;;;-4.96;77.37
36138;BME280;67787;50.074;21.904;2023-12-04T02:43:54;99743.66;;;-4.88;77.35
36138;BME280;67787;50.074;21.904;2023-12-04T02:46:22;99741.41;;;-4.82;77.32
36138;BME280;67787;50.074;21.904;2023-12-04T02:48:50;99746.79;;;-4.74;77.61
36138;BME280;67787;50.074;21.904;2023-12-04T02:51:18;99738.99;;;-4.67;77.67
36138;BME280;67787;50.074;21.904;2023-12-04T02:53:46;99740.55;;;-4.58;77.58
36138;BME280;67787;50.074;21.904;2023-12-04T02:56:14;99735.54;;;-4.53;77.65
36138;BME280;67787;50.074;21.904;2023-12-04T02:58:42;99738.14;;;-4.49;77.44
36138;BME280;67787;50.074;21.904;2023-12-04T03:01:09;99737.08;;;-4.45;77.74
36138;BME280;67787;50.074;21.904;2023-12-04T03:03:37;99737.77;;;-4.39;77.57
36138;BME280;67787;50.074;21.904;2023-12-04T03:06:06;99738.80;;;-4.35;77.55
36138;BME280;67787;50.074;21.904;2023-12-04T03:08:34;99740.54;;;-4.29;77.41
36138;BME280;67787;50.074;21.904;2023-12-04T03:11:02;99735.67;;;-4.25;77.32
36138;BME280;67787;50.074;21.904;2023-12-04T03:13:31;99732.38;;;-4.22;77.59
36138;BME280;67787;50.074;21.904;2023-12-04T03:15:59;99735.66;;;-4.17;77.62
36138;BME280;67787;50.074;21.904;2023-12-04T03:18:27;99731.50;;;-4.15;77.28
36138;BME280;67787;50.074;21.904;2023-12-04T03:20:56;99731.67;;;-4.14;77.45
36138;BME280;67787;50.074;21.904;2023-12-04T03:23:24;99735.31;;;-4.14;77.48
36138;BME280;67787;50.074;21.904;2023-12-04T03:25:52;99732.20;;;-4.16;77.28
36138;BME280;67787;50.074;21.904;2023-12-04T03:28:20;99732.19;;;-4.17;77.24
36138;BME280;67787;50.074;21.904;2023-12-04T03:30:48;99731.70;;;-4.19;77.17
36138;BME280;67787;50.074;21.904;2023-12-04T03:33:15;99737.58;;;-4.21;77.09
36138;BME280;67787;50.074;21.904;2023-12-04T03:35:44;99733.93;;;-4.25;77.12
36138;BME280;67787;50.074;21.904;2023-12-04T03:38:12;99733.94;;;-4.26;77.35
36138;BME280;67787;50.074;21.904;2023-12-04T03:40:39;99740.18;;;-4.28;76.86
36138;BME280;67787;50.074;21.904;2023-12-04T03:43:07;99740.55;;;-4.33;76.98
36138;BME280;67787;50.074;21.904;2023-12-04T03:45:35;99741.23;;;-4.37;76.86
36138;BME280;67787;50.074;21.904;2023-12-04T03:48:03;99745.73;;;-4.43;76.95
36138;BME280;67787;50.074;21.904;2023-12-04T03:50:31;99741.93;;;-4.46;76.98
36138;BME280;67787;50.074;21.904;2023-12-04T03:52:59;99740.03;;;-4.49;77.01
36138;BME280;67787;50.074;21.904;2023-12-04T03:55:27;99739.70;;;-4.55;76.73
36138;BME280;67787;50.074;21.904;2023-12-04T03:57:55;99740.38;;;-4.63;76.85
36138;BME280;67787;50.074;21.904;2023-12-04T04:00:24;99750.77;;;-4.65;76.97
36138;BME280;67787;50.074;21.904;2023-12-04T04:02:52;99757.52;;;-4.65;76.94
36138;BME280;67787;50.074;21.904;2023-12-04T04:05:20;99756.13;;;-4.68;76.78
36138;BME280;67787;50.074;21.904;2023-12-04T04:07:48;99758.02;;;-4.77;76.52
36138;BME280;67787;50.074;21.904;2023-12-04T04:10:16;99761.64;;;-4.86;76.31
36138;BME280;67787;50.074;21.904;2023-12-04T04:12:44;99760.95;;;-4.86;76.76
36138;BME280;67787;50.074;21.904;2023-12-04T04:15:12;99767.19;;;-4.85;76.95
36138;BME280;67787;50.074;21.904;2023-12-04T04:17:40;99768.75;;;-4.83;76.93
36138;BME280;67787;50.074;21.904;2023-12-04T04:20:08;99771.17;;;-4.81;76.82
36138;BME280;67787;50.074;21.904;2023-12-04T04:22:36;99775.86;;;-4.77;76.79
36138;BME280;67787;50.074;21.904;2023-12-04T04:25:07;99776.37;;;-4.74;76.89
36138;BME280;67787;50.074;21.904;2023-12-04T04:27:35;99774.14;;;-4.70;77.01
36138;BME280;67787;50.074;21.904;2023-12-04T04:30:03;99772.56;;;-4.68;76.94
36138;BME280;67787;50.074;21.904;2023-12-04T04:32:31;99777.77;;;-4.64;77.15
36138;BME280;67787;50.074;21.904;2023-12-04T04:34:59;99776.39;;;-4.59;77.22
36138;BME280;67787;50.074;21.904;2023-12-04T04:37:27;99775.34;;;-4.55;77.20
36138;BME280;67787;50.074;21.904;2023-12-04T04:39:55;99773.98;;;-4.52;77.18
36138;BME280;67787;50.074;21.904;2023-12-04T04:42:23;99771.90;;;-4.50;77.26
36138;BME280;67787;50.074;21.904;2023-12-04T04:44:51;99771.20;;;-4.48;77.18
36138;BME280;67787;50.074;21.904;2023-12-04T04:47:19;99777.26;;;-4.47;77.03
36138;BME280;67787;50.074;21.904;2023-12-04T04:49:47;99781.75;;;-4.48;77.01
36138;BME280;67787;50.074;21.904;2023-12-04T04:52:15;99784.88;;;-4.50;76.82
36138;BME280;67787;50.074;21.904;2023-12-04T04:54:43;99789.05;;;-4.51;76.75
36138;BME280;67787;50.074;21.904;2023-12-04T04:57:11;99787.83;;;-4.53;76.64
36138;BME280;67787;50.074;21.904;2023-12-04T04:59:39;99789.36;;;-4.56;76.78
36138;BME280;67787;50.074;21.904;2023-12-04T05:02:06;99791.61;;;-4.56;76.89
36138;BME280;67787;50.074;21.904;2023-12-04T05:04:34;99794.56;;;-4.58;76.96
36138;BME280;67787;50.074;21.904;2023-12-04T05:07:02;99791.09;;;-4.58;76.79
36138;BME280;67787;50.074;21.904;2023-12-04T05:09:30;99793.69;;;-4.58;76.91
36138;BME280;67787;50.074;21.904;2023-12-04T05:11:58;99791.27;;;-4.58;76.84
36138;BME280;67787;50.074;21.904;2023-12-04T05:14:26;99792.49;;;-4.58;76.87
36138;BME280;67787;50.074;21.904;2023-12-04T05:16:55;99795.77;;;-4.59;76.70
36138;BME280;67787;50.074;21.904;2023-12-04T05:19:22;99791.80;;;-4.59;76.78
36138;BME280;67787;50.074;21.904;2023-12-04T05:21:50;99793.53;;;-4.57;77.10
36138;BME280;67787;50.074;21.904;2023-12-04T05:24:18;99791.97;;;-4.57;76.82
36138;BME280;67787;50.074;21.904;2023-12-04T05:26:46;99790.59;;;-4.56;76.77
36138;BME280;67787;50.074;21.904;2023-12-04T05:29:14;99796.99;;;-4.55;76.77
36138;BME280;67787;50.074;21.904;2023-12-04T05:31:42;99798.04;;;-4.53;76.66
36138;BME280;67787;50.074;21.904;2023-12-04T05:34:10;99797.34;;;-4.51;76.82
36138;BME280;67787;50.074;21.904;2023-12-04T05:36:38;99790.77;;;-4.49;76.71
36138;BME280;67787;50.074;21.904;2023-12-04T05:39:06;99790.59;;;-4.50;76.65
36138;BME280;67787;50.074;21.904;2023-12-04T05:41:34;99785.05;;;-4.52;76.78
36138;BME280;67787;50.074;21.904;2023-12-04T05:44:03;99780.71;;;-4.54;76.41
36138;BME280;67787;50.074;21.904;2023-12-04T05:46:31;99781.59;;;-4.57;76.47
36138;BME280;67787;50.074;21.904;2023-12-04T05:49:00;99778.81;;;-4.57;76.57
36138;BME280;67787;50.074;21.904;2023-12-04T05:51:28;99785.21;;;-4.54;76.68
36138;BME280;67787;50.074;21.904;2023-12-04T05:53:59;99789.20;;;-4.53;76.61
36138;BME280;67787;50.074;21.904;2023-12-04T05:56:26;99791.63;;;-4.53;76.60
36138;BME280;67787;50.074;21.904;2023-12-04T05:58:54;99794.23;;;-4.51;76.65
36138;BME280;67787;50.074;21.904;2023-12-04T06:01:23;99790.92;;;-4.52;76.27
36138;BME280;67787;50.074;21.904;2023-12-04T06:03:51;99792.48;;;-4.54;76.49
36138;BME280;67787;50.074;21.904;2023-12-04T06:06:19;99797.86;;;-4.49;76.65
36138;BME280;67787;50.074;21.904;2023-12-04T06:08:47;99802.01;;;-4.45;76.59
36138;BME280;67787;50.074;21.904;2023-12-04T06:11:15;99804.43;;;-4.40;76.77
36138;BME280;67787;50.074;21.904;2023-12-04T06:13:42;99811.20;;;-4.37;76.65
36138;BME280;67787;50.074;21.904;2023-12-04T06:16:10;99811.70;;;-4.33;76.65
36138;BME280;67787;50.074;21.904;2023-12-04T06:18:38;99807.38;;;-4.29;76.82
36138;BME280;67787;50.074;21.904;2023-12-04T06:21:06;99809.63;;;-4.29;76.46
36138;BME280;67787;50.074;21.904;2023-12-04T06:23:34;99809.98;;;-4.31;76.29
36138;BME280;67787;50.074;21.904;2023-12-04T06:26:03;99807.54;;;-4.28;76.79
36138;BME280;67787;50.074;21.904;2023-12-04T06:28:34;99807.20;;;-4.25;76.62
36138;BME280;67787;50.074;21.904;2023-12-04T06:31:02;99811.88;;;-4.24;76.63
36138;BME280;67787;50.074;21.904;2023-12-04T06:33:30;99810.50;;;-4.20;76.87
36138;BME280;67787;50.074;21.904;2023-12-04T06:35:58;99811.02;;;-4.19;76.62
36138;BME280;67787;50.074;21.904;2023-12-04T06:38:28;99811.70;;;-4.14;76.82
36138;BME280;67787;50.074;21.904;2023-12-04T06:40:59;99813.96;;;-4.10;76.64
36138;BME280;67787;50.074;21.904;2023-12-04T06:43:27;99814.64;;;-4.07;76.73
36138;BME280;67787;50.074;21.904;2023-12-04T06:45:55;99816.71;;;-4.03;76.85
36138;BME280;67787;50.074;21.904;2023-12-04T06:48:26;99816.71;;;-4.00;76.59
36138;BME280;67787;50.074;21.904;2023-12-04T06:50:54;99814.63;;;-3.98;76.68
36138;BME280;67787;50.074;21.904;2023-12-04T06:53:23;99822.26;;;-3.96;76.80
36138;BME280;67787;50.074;21.904;2023-12-04T06:55:51;99824.33;;;-3.93;76.67
36138;BME280;67787;50.074;21.904;2023-12-04T06:58:19;99824.67;;;-3.91;76.61
36138;BME280;67787;50.074;21.904;2023-12-04T07:00:47;99827.45;;;-3.89;76.84
36138;BME280;67787;50.074;21.904;2023-12-04T07:03:16;99828.48;;;-3.90;76.69
36138;BME280;67787;50.074;21.904;2023-12-04T07:05:44;99828.81;;;-3.85;76.63
36138;BME280;67787;50.074;21.904;2023-12-04T07:08:12;99830.20;;;-3.80;76.50
36138;BME280;67787;50.074;21.904;2023-12-04T07:10:40;99832.10;;;-3.77;76.79
36138;BME280;67787;50.074;21.904;2023-12-04T07:13:10;99836.77;;;-3.71;76.65
36138;BME280;67787;50.074;21.904;2023-12-04T07:15:40;99833.48;;;-3.69;76.89
36138;BME280;67787;50.074;21.904;2023-12-04T07:18:08;99830.88;;;-3.68;76.76
36138;BME280;67787;50.074;21.904;2023-12-04T07:20:36;99837.44;;;-3.66;76.76
36138;BME280;67787;50.074;21.904;2023-12-04T07:23:04;99836.91;;;-3.63;76.68
36138;BME280;67787;50.074;21.904;2023-12-04T07:25:32;99840.90;;;-3.60;76.65
36138;BME280;67787;50.074;21.904;2023-12-04T07:28:00;99843.50;;;-3.56;76.66
36138;BME280;67787;50.074;21.904;2023-12-04T07:30:27;99845.05;;;-3.54;76.59
36138;BME280;67787;50.074;21.904;2023-12-04T07:32:56;99844.20;;;-3.54;76.60
36138;BME280;67787;50.074;21.904;2023-12-04T07:35:25;99842.27;;;-3.54;76.57
36138;BME280;67787;50.074;21.904;2023-12-04T07:37:55;99845.75;;;-3.52;76.57
36138;BME280;67787;50.074;21.904;2023-12-04T07:40:26;99846.44;;;-3.49;76.67
36138;BME280;67787;50.074;21.904;2023-12-04T07:42:54;99847.12;;;-3.50;76.67
36138;BME280;67787;50.074;21.904;2023-12-04T07:45:22;99848.51;;;-3.49;76.64
36138;BME280;67787;50.074;21.904;2023-12-04T07:47:51;99850.73;;;-3.46;76.70
36138;BME280;67787;50.074;21.904;2023-12-04T07:50:19;99849.52;;;-3.45;76.61
36138;BME280;67787;50.074;21.904;2023-12-04T07:52:47;99848.13;;;-3.43;76.49
36138;BME280;67787;50.074;21.904;2023-12-04T07:55:15;99848.46;;;-3.40;76.46
36138;BME280;67787;50.074;21.904;2023-12-04T07:57:42;99851.92;;;-3.36;76.65
36138;BME280;67787;50.074;21.904;2023-12-04T08:00:11;99854.02;;;-3.32;76.85
36138;BME280;67787;50.074;21.904;2023-12-04T08:02:41;99852.61;;;-3.28;76.71
36138;BME280;67787;50.074;21.904;2023-12-04T08:05:12;99855.88;;;-3.24;76.58
36138;BME280;67787;50.074;21.904;2023-12-04T08:07:41;99856.21;;;-3.21;76.58
36138;BME280;67787;50.074;21.904;2023-12-04T08:10:09;99855.86;;;-3.16;76.64
36138;BME280;67787;50.074;21.904;2023-12-04T08:12:36;99859.14;;;-3.10;76.61
36138;BME280;67787;50.074;21.904;2023-12-04T08:15:05;99859.30;;;-3.07;76.42
36138;BME280;67787;50.074;21.904;2023-12-04T08:17:33;99863.60;;;-3.05;76.68
36138;BME280;67787;50.074;21.904;2023-12-04T08:20:01;99859.42;;;-3.00;76.42
36138;BME280;67787;50.074;21.904;2023-12-04T08:22:29;99851.95;;;-2.94;76.68
36138;BME280;67787;50.074;21.904;2023-12-04T08:24:57;99853.84;;;-2.88;76.57
36138;BME280;67787;50.074;21.904;2023-12-04T08:27:26;99855.02;;;-2.85;76.79
36138;BME280;67787;50.074;21.904;2023-12-04T08:29:54;99858.64;;;-2.81;76.51
36138;BME280;67787;50.074;21.904;2023-12-04T08:32:22;99860.70;;;-2.76;76.53
36138;BME280;67787;50.074;21.904;2023-12-04T08:34:50;99857.04;;;-2.72;76.48
36138;BME280;67787;50.074;21.904;2023-12-04T08:37:18;99854.77;;;-2.70;76.48
36138;BME280;67787;50.074;21.904;2023-12-04T08:39:46;99851.28;;;-2.66;76.42
36138;BME280;67787;50.074;21.904;2023-12-04T08:42:14;99853.54;;;-2.66;76.23
36138;BME280;67787;50.074;21.904;2023-12-04T08:44:50;99857.52;;;-2.67;76.48
36138;BME280;67787;50.074;21.904;2023-12-04T08:47:18;99865.32;;;-2.65;76.28
36138;BME280;67787;50.074;21.904;2023-12-04T08:49:46;99868.44;;;-2.64;76.41
36138;BME280;67787;50.074;21.904;2023-12-04T08:52:16;99871.21;;;-2.62;76.42
36138;BME280;67787;50.074;21.904;2023-12-04T08:54:44;99874.14;;;-2.58;76.40
36138;BME280;67787;50.074;21.904;2023-12-04T08:57:14;99871.34;;;-2.56;76.43
36138;BME280;67787;50.074;21.904;2023-12-04T08:59:42;99868.90;;;-2.53;76.34
36138;BME280;67787;50.074;21.904;2023-12-04T09:02:10;99867.66;;;-2.50;76.34
36138;BME280;67787;50.074;21.904;2023-12-04T09:04:41;99866.96;;;-2.48;76.46
36138;BME280;67787;50.074;21.904;2023-12-04T09:07:10;99866.77;;;-2.45;76.40
36138;BME280;67787;50.074;21.904;2023-12-04T09:09:58;99863.43;;;-2.41;76.39
36138;BME280;67787;50.074;21.904;2023-12-04T09:12:29;99865.82;;;-2.35;76.45
36138;BME280;67787;50.074;21.904;2023-12-04T09:14:57;99864.24;;;-2.31;76.32
36138;BME280;67787;50.074;21.904;2023-12-04T09:17:27;99865.77;;;-2.27;76.31
36138;BME280;67787;50.074;21.904;2023-12-04T09:20:03;99863.12;;;-2.20;76.22
36138;BME280;67787;50.074;21.904;2023-12-04T09:22:34;99855.95;;;-2.17;76.29
36138;BME280;67787;50.074;21.904;2023-12-04T09:25:19;99854.55;;;-2.14;76.05
36138;BME280;67787;50.074;21.904;2023-12-04T09:27:55;99850.04;;;-2.15;76.03
36138;BME280;67787;50.074;21.904;2023-12-04T09:30:23;99851.95;;;-2.14;76.15
36138;BME280;67787;50.074;21.904;2023-12-04T09:32:51;99844.80;;;-2.14;76.08
36138;BME280;67787;50.074;21.904;2023-12-04T09:35:18;99844.29;;;-2.13;76.02
36138;BME280;67787;50.074;21.904;2023-12-04T09:37:47;99845.16;;;-2.13;76.14
36138;BME280;67787;50.074;21.904;2023-12-04T09:40:18;99838.56;;;-2.15;76.17
36138;BME280;67787;50.074;21.904;2023-12-04T09:42:46;99839.81;;;-2.18;75.83
36138;BME280;67787;50.074;21.904;2023-12-04T09:45:15;99843.46;;;-2.19;76.11
36138;BME280;67787;50.074;21.904;2023-12-04T09:47:44;99841.55;;;-2.19;76.11
36138;BME280;67787;50.074;21.904;2023-12-04T09:50:16;99840.16;;;-2.19;75.98
36138;BME280;67787;50.074;21.904;2023-12-04T09:52:49;99845.36;;;-2.17;76.15
36138;BME280;67787;50.074;21.904;2023-12-04T09:55:18;99846.05;;;-2.15;75.98
36138;BME280;67787;50.074;21.904;2023-12-04T09:57:46;99843.09;;;-2.14;76.24
36138;BME280;67787;50.074;21.904;2023-12-04T10:00:17;99842.54;;;-2.12;76.10
36138;BME280;67787;50.074;21.904;2023-12-04T10:02:46;99837.49;;;-2.12;76.17
36138;BME280;67787;50.074;21.904;2023-12-04T10:05:15;99838.71;;;-2.11;76.15
36138;BME280;67787;50.074;21.904;2023-12-04T10:07:43;99841.83;;;-2.10;75.96
36138;BME280;67787;50.074;21.904;2023-12-04T10:10:12;99838.01;;;-2.09;76.03
36138;BME280;67787;50.074;21.904;2023-12-04T10:12:43;99832.05;;;-2.04;75.90
36138;BME280;67787;50.074;21.904;2023-12-04T10:15:12;99822.48;;;-2.03;75.92
36138;BME280;67787;50.074;21.904;2023-12-04T10:17:43;99821.24;;;-2.02;75.88
36138;BME280;67787;50.074;21.904;2023-12-04T10:20:13;99822.28;;;-2.00;75.94
36138;BME280;67787;50.074;21.904;2023-12-04T10:22:56;99820.34;;;-1.99;76.06
36138;BME280;67787;50.074;21.904;2023-12-04T10:25:28;99825.51;;;-1.92;75.98
36138;BME280;67787;50.074;21.904;2023-12-04T10:28:08;99829.14;;;-1.90;76.04
36138;BME280;67787;50.074;21.904;2023-12-04T10:30:37;99827.72;;;-1.87;75.93
36138;BME280;67787;50.074;21.904;2023-12-04T10:33:06;99826.16;;;-1.87;75.79
36138;BME280;67787;50.074;21.904;2023-12-04T10:35:36;99825.48;;;-1.87;75.88
36138;BME280;67787;50.074;21.904;2023-12-04T10:38:06;99821.80;;;-1.86;76.00
36138;BME280;67787;50.074;21.904;2023-12-04T10:40:36;99819.71;;;-1.86;76.03
36138;BME280;67787;50.074;21.904;2023-12-04T10:43:18;99814.13;;;-1.84;75.87
36138;BME280;67787;50.074;21.904;2023-12-04T10:45:48;99811.70;;;-1.83;75.83
36138;BME280;67787;50.074;21.904;2023-12-04T10:48:17;99805.06;;;-1.82;75.84
36138;BME280;67787;50.074;21.904;2023-12-04T10:50:47;99804.34;;;-1.80;75.57
36138;BME280;67787;50.074;21.904;2023-12-04T10:53:18;99802.07;;;-1.78;75.75
36138;BME280;67787;50.074;21.904;2023-12-04T10:55:49;99800.30;;;-1.75;75.84
36138;BME280;67787;50.074;21.904;2023-12-04T10:58:19;99801.32;;;-1.72;75.72
36138;BME280;67787;50.074;21.904;2023-12-04T11:03:41;99798.31;;;-1.69;75.56
36138;BME280;67787;50.074;21.904;2023-12-04T11:06:12;99796.39;;;-1.67;75.74
36138;BME280;67787;50.074;21.904;2023-12-04T11:08:42;99798.11;;;-1.66;75.71
36138;BME280;67787;50.074;21.904;2023-12-04T11:11:35;99794.82;;;-1.66;75.84
36138;BME280;67787;50.074;21.904;2023-12-04T11:14:05;99790.25;;;-1.62;75.69
36138;BME280;67787;50.074;21.904;2023-12-04T11:16:46;99792.86;;;-1.62;75.49
36138;BME280;67787;50.074;21.904;2023-12-04T11:19:20;99786.61;;;-1.64;75.26
36138;BME280;67787;50.074;21.904;2023-12-04T11:21:53;99785.42;;;-1.66;75.30
36138;BME280;67787;50.074;21.904;2023-12-04T11:24:23;99785.77;;;-1.66;75.26
36138;BME280;67787;50.074;21.904;2023-12-04T11:26:51;99781.94;;;-1.65;75.18
36138;BME280;67787;50.074;21.904;2023-12-04T11:29:21;99777.28;;;-1.69;74.89
36138;BME280;67787;50.074;21.904;2023-12-04T11:31:49;99774.33;;;-1.68;75.34
36138;BME280;67787;50.074;21.904;2023-12-04T11:34:17;99773.23;;;-1.65;75.33
36138;BME280;67787;50.074;21.904;2023-12-04T11:36:45;99770.10;;;-1.64;75.30
36138;BME280;67787;50.074;21.904;2023-12-04T11:39:13;99772.02;;;-1.63;75.47
36138;BME280;67787;50.074;21.904;2023-12-04T11:41:41;99770.92;;;-1.61;75.43
36138;BME280;67787;50.074;21.904;2023-12-04T11:44:12;99766.03;;;-1.58;75.21
36138;BME280;67787;50.074;21.904;2023-12-04T11:47:09;99766.72;;;-1.58;75.09
36138;BME280;67787;50.074;21.904;2023-12-04T11:49:38;99760.61;;;-1.57;75.20
36138;BME280;67787;50.074;21.904;2023-12-04T11:52:07;99754.34;;;-1.55;75.25
36138;BME280;67787;50.074;21.904;2023-12-04T11:55:00;99757.83;;;-1.56;75.21
36138;BME280;67787;50.074;21.904;2023-12-04T11:57:34;99754.65;;;-1.53;75.17
36138;BME280;67787;50.074;21.904;2023-12-04T12:02:40;99747.87;;;-1.52;74.68
36138;BME280;67787;50.074;21.904;2023-12-04T12:05:30;99748.23;;;-1.54;75.15
36138;BME280;67787;50.074;21.904;2023-12-04T12:08:01;99751.70;;;-1.53;75.18
36138;BME280;67787;50.074;21.904;2023-12-04T12:10:29;99752.90;;;-1.51;75.22
36138;BME280;67787;50.074;21.904;2023-12-04T12:12:58;99749.94;;;-1.50;75.24
36138;BME280;67787;50.074;21.904;2023-12-04T12:15:26;99746.46;;;-1.51;75.18
36138;BME280;67787;50.074;21.904;2023-12-04T12:17:54;99744.93;;;-1.54;75.05
36138;BME280;67787;50.074;21.904;2023-12-04T12:20:22;99746.92;;;-1.60;74.36
36138;BME280;67787;50.074;21.904;2023-12-04T12:22:51;99740.38;;;-1.66;74.91
36138;BME280;67787;50.074;21.904;2023-12-04T12:25:19;99741.58;;;-1.63;75.07
36138;BME280;67787;50.074;21.904;2023-12-04T12:27:47;99736.52;;;-1.63;75.03
36138;BME280;67787;50.074;21.904;2023-12-04T12:30:15;99734.95;;;-1.63;74.98
36138;BME280;67787;50.074;21.904;2023-12-04T12:32:43;99733.02;;;-1.62;74.94
36138;BME280;67787;50.074;21.904;2023-12-04T12:35:11;99734.56;;;-1.60;75.32
36138;BME280;67787;50.074;21.904;2023-12-04T12:37:39;99733.86;;;-1.59;74.90
36138;BME280;67787;50.074;21.904;2023-12-04T12:40:09;99731.95;;;-1.59;75.15
36138;BME280;67787;50.074;21.904;2023-12-04T12:42:37;99729.84;;;-1.57;75.09
36138;BME280;67787;50.074;21.904;2023-12-04T12:45:11;99729.86;;;-1.59;74.73
36138;BME280;67787;50.074;21.904;2023-12-04T12:47:42;99728.34;;;-1.62;74.78
36138;BME280;67787;50.074;21.904;2023-12-04T12:50:10;99725.56;;;-1.63;75.06
36138;BME280;67787;50.074;21.904;2023-12-04T12:52:40;99724.49;;;-1.61;74.93
36138;BME280;67787;50.074;21.904;2023-12-04T12:55:08;99722.08;;;-1.62;74.81
36138;BME280;67787;50.074;21.904;2023-12-04T12:57:37;99722.96;;;-1.64;74.93
36138;BME280;67787;50.074;21.904;2023-12-04T13:00:06;99721.95;;;-1.67;75.02
36138;BME280;67787;50.074;21.904;2023-12-04T13:02:35;99719.86;;;-1.66;74.97
36138;BME280;67787;50.074;21.904;2023-12-04T13:05:05;99720.08;;;-1.69;74.62
36138;BME280;67787;50.074;21.904;2023-12-04T13:07:34;99721.14;;;-1.72;74.73
36138;BME280;67787;50.074;21.904;2023-12-04T13:10:02;99721.15;;;-1.72;74.90